Terminal Aerodrome Forecast
Issued by NWS Wakefield, VA

Home | Current Version | Previous Version | Text Only | Print | Product List | Glossary On
Versions: 1 2 3 4 5 6 7 8 9 10 11 12 13 14 15 16 17 18 19 20 21 22 23 24 25 26
565
FTUS41 KAKQ 252205 AAC
TAFRIC
TAF AMD
KRIC 252205Z 2522/2618 36010KT P6SM VCSH FEW009 SCT023 BKN070
     FM260000 36005KT 4SM BR VCSH OVC007
     FM260300 34005KT 2SM BR OVC005
     FM260600 33006KT 2SM BR OVC004
     FM261300 31006KT P6SM BKN004
     FM261500 31006KT P6SM BKN010=

USA.gov is the U.S. government's official web portal to all federal, state and local government web resources and services.